Dades meteomassalio
Diari Summary for Juliol 10, 2017 Units:  Metric    English   Both
« Previous Day
Next Day »
Diari Semanal Mensual Anual Personalitzat
  Maxima: Minima: Mijana:
Temperatura: -17.8 °C -6.9 °C -3.9 °C
Rosada: -17.8 °C -9 °C -7.6 °C
Humitat: Humidity % 50 % 67 %
Velocitat del vent: 0 km/h 0 km/h 10.5 km/h
Racha vent: 0 km/h - -
Vent:- - SSE
Pressio: 0 hPa 34164.7 hPa -
Pluja: 0 mm    
Historical Graphs
 
 
Tabular Data for Juliol 10, 2017
Time Temperature Dew Point Pressure Wind Wind Speed Wind Gust Humidity Rainfall Rate (Hourly) solar Conditions
-17.8 °C -17.8 °C 0 hPa Calm     Humidity % 0 mm SolarRadiationWatts/m^2 W/m2 Conditions
00:03 -4.3 °C -8.8 °C 34256.2 hPa Calm     61 % 0 mm 0.0 W/m2 CLR
00:08 -4.4 °C -9 °C 34256.2 hPa Calm     60 % 0 mm 0.0 W/m2 CLR
00:13 -4.4 °C -8.8 °C 34256.2 hPa Calm     61 % 0 mm 0.0 W/m2 CLR
00:18 -4.5 °C -8.9 °C 34256.2 hPa Calm     61 % 0 mm 0.0 W/m2 CLR
00:23 -4.6 °C -8.4 °C 34256.2 hPa Calm     65 % 0 mm 0.0 W/m2 CLR
00:28 -4.7 °C -8.7 °C 34256.2 hPa Calm     64 % 0 mm 0.0 W/m2 CLR
00:33 -4.8 °C -8.8 °C 34256.2 hPa Calm     64 % 0 mm 0.0 W/m2 CLR
00:38 -4.9 °C -8.8 °C 34256.2 hPa Calm     65 % 0 mm 0.0 W/m2 CLR
00:43 -5 °C -8.6 °C 34256.2 hPa Calm     67 % 0 mm 0.0 W/m2 CLR
00:48 -5.1 °C -8.4 °C 34256.2 hPa Calm     69 % 0 mm 0.0 W/m2 CLR
00:53 -5.2 °C -8.4 °C 34256.2 hPa Calm     70 % 0 mm 0.0 W/m2 CLR
00:58 -5.3 °C -8.3 °C 34256.2 hPa Calm     72 % 0 mm 0.0 W/m2 CLR
01:03 -5.5 °C -8.3 °C 34256.2 hPa Calm     73 % 0 mm 0.0 W/m2 CLR
01:08 -5.7 °C -8.5 °C 34256.2 hPa Calm     73 % 0 mm 0.0 W/m2 CLR
01:13 -5.7 °C -8.4 °C 34256.2 hPa Calm     74 % 0 mm 0.0 W/m2 CLR
01:18 -5.8 °C -8.4 °C 34256.2 hPa Calm     74 % 0 mm 0.0 W/m2 CLR
01:23 -5.8 °C -8.5 °C 34256.2 hPa Calm     74 % 0 mm 0.0 W/m2 CLR
01:28 -5.9 °C -8.4 °C 34246 hPa Calm     75 % 0 mm 0.0 W/m2 CLR
01:33 -5.9 °C -8.4 °C 34246 hPa Calm     76 % 0 mm 0.0 W/m2 CLR
01:38 -5.9 °C -8.5 °C 34246 hPa Calm     75 % 0 mm 0.0 W/m2 CLR
01:43 -5.7 °C -8.6 °C 34246 hPa Calm     72 % 0 mm 0.0 W/m2 CLR
01:48 -5.4 °C -8.6 °C 34246 hPa Calm     70 % 0 mm 0.0 W/m2 CLR
01:53 -5.3 °C -8.4 °C 34246 hPa Calm     71 % 0 mm 0.0 W/m2 CLR
01:58 -5.4 °C -8.4 °C 34246 hPa Calm     71 % 0 mm 0.0 W/m2 CLR
02:04 -5.4 °C -8.6 °C 34246 hPa Calm     70 % 0 mm 0.0 W/m2 CLR
02:09 -5.4 °C -8.6 °C 34246 hPa Calm     70 % 0 mm 0.0 W/m2 CLR
02:14 -5.4 °C -8.4 °C 34246 hPa Calm     71 % 0 mm 0.0 W/m2 CLR
02:19 -5.6 °C -8.5 °C 34246 hPa Calm     72 % 0 mm 0.0 W/m2 CLR
02:24 -5.7 °C -8.6 °C 34246 hPa Calm     73 % 0 mm 0.0 W/m2 CLR
02:29 -5.8 °C -8.7 °C 34246 hPa Calm     73 % 0 mm 0.0 W/m2 CLR
02:34 -5.9 °C -8.6 °C 34246 hPa Calm     74 % 0 mm 0.0 W/m2 CLR
02:39 -6 °C -8.4 °C 34235.8 hPa Calm     76 % 0 mm 0.0 W/m2 CLR
02:44 -6.1 °C -8.7 °C 34235.8 hPa Calm     75 % 0 mm 0.0 W/m2 CLR
02:49 -5.9 °C -8.6 °C 34235.8 hPa Calm     74 % 0 mm 0.0 W/m2 CLR
02:54 -5.9 °C -8.6 °C 34235.8 hPa Calm     74 % 0 mm 0.0 W/m2 CLR
02:59 -5.9 °C -8.6 °C 34235.8 hPa Calm     74 % 0 mm 0.0 W/m2 CLR
03:04 -5.9 °C -8.5 °C 34235.8 hPa Calm     75 % 0 mm 0.0 W/m2 CLR
03:09 -6 °C -8.4 °C 34235.8 hPa Calm     76 % 0 mm 0.0 W/m2 CLR
03:14 -6 °C -8.7 °C 34235.8 hPa Calm     74 % 0 mm 0.0 W/m2 CLR
03:19 -5.9 °C -8.6 °C 34222.3 hPa Calm     74 % 0 mm 0.0 W/m2 CLR
03:24 -5.9 °C -8.6 °C 34222.3 hPa Calm     74 % 0 mm 0.0 W/m2 CLR
03:29 -5.9 °C -8.6 °C 34222.3 hPa Calm     74 % 0 mm 0.0 W/m2 CLR
03:34 -5.9 °C -8.7 °C 34222.3 hPa Calm     74 % 0 mm 0.0 W/m2 CLR
03:39 -5.9 °C -8.7 °C 34222.3 hPa Calm     73 % 0 mm 0.0 W/m2 CLR
03:44 -5.9 °C -8.6 °C 34222.3 hPa Calm     74 % 0 mm 0.0 W/m2 CLR
03:49 -5.8 °C -8.7 °C 34222.3 hPa Calm     73 % 0 mm 0.0 W/m2 CLR
03:54 -5.8 °C -8.5 °C 34222.3 hPa Calm     74 % 0 mm 0.0 W/m2 CLR
03:59 -5.9 °C -8.4 °C 34222.3 hPa Calm     75 % 0 mm 0.0 W/m2 CLR
04:04 -6 °C -8.6 °C 34222.3 hPa Calm     75 % 0 mm 0.0 W/m2 CLR
04:09 -6.2 °C -8.6 °C 34222.3 hPa Calm     76 % 0 mm 0.0 W/m2 CLR
04:14 -6.2 °C -8.7 °C 34222.3 hPa Calm     76 % 0 mm 0.0 W/m2 CLR
04:19 -6.3 °C -8.7 °C 34222.3 hPa Calm     76 % 0 mm 0.0 W/m2 CLR
04:24 -6.4 °C -8.7 °C 34222.3 hPa Calm     77 % 0 mm 0.0 W/m2 CLR
04:29 -6.4 °C -8.8 °C 34222.3 hPa Calm     77 % 0 mm 0.0 W/m2 CLR
04:34 -6.4 °C -8.8 °C 34212.1 hPa Calm     76 % 0 mm 0.0 W/m2 CLR
04:39 -6.3 °C -8.8 °C 34222.3 hPa Calm     76 % 0 mm 0.0 W/m2 CLR
04:44 -6.3 °C -8.6 °C 34212.1 hPa Calm     78 % 0 mm 0.0 W/m2 CLR
04:49 -6.4 °C -8.6 °C 34212.1 hPa Calm     79 % 0 mm 0.0 W/m2 CLR
04:54 -6.6 °C -8.6 °C 34212.1 hPa Calm     80 % 0 mm 0.0 W/m2 CLR
04:55 -6.6 °C -8.6 °C 34212.1 hPa Calm     80 % 0 mm 0.0 W/m2 CLR
05:00 -6.6 °C -8.5 °C 34212.1 hPa Calm     81 % 0 mm 0.0 W/m2 CLR
05:05 -6.6 °C -8.5 °C 34212.1 hPa Calm     81 % 0 mm 0.0 W/m2 CLR
05:10 -6.7 °C -8.7 °C 34212.1 hPa Calm     80 % 0 mm 0.0 W/m2 CLR
05:15 -6.7 °C -8.6 °C 34212.1 hPa Calm     81 % 0 mm 0.0 W/m2 CLR
05:16 -6.7 °C -8.6 °C 34212.1 hPa Calm     81 % 0 mm 0.0 W/m2 CLR
05:21 -6.8 °C -8.6 °C 34222.3 hPa Calm     81 % 0 mm 0.0 W/m2 CLR
05:26 -6.8 °C -8.6 °C 34222.3 hPa Calm     81 % 0 mm 0.0 W/m2 CLR
05:31 -6.8 °C -8.6 °C 34222.3 hPa Calm     82 % 0 mm 0.0 W/m2 CLR
05:36 -6.8 °C -8.6 °C 34222.3 hPa Calm     82 % 0 mm 0.0 W/m2 CLR
05:41 -6.9 °C -8.7 °C 34235.8 hPa NNW 10.3 km/h 10.3 km/h 82 % 0 mm 0.0 W/m2 CLR
05:46 -6.6 °C -8.7 °C 34235.8 hPa NW 23.8 km/h 23.8 km/h 79 % 0 mm 0.0 W/m2 CLR
05:51 -6.1 °C -8.6 °C 34246 hPa NW 23.8 km/h 23.8 km/h 76 % 0 mm 0.0 W/m2 CLR
05:56 -5.9 °C -8.4 °C 34246 hPa NW 29.8 km/h 29.8 km/h 75 % 0 mm 0.0 W/m2 CLR
06:06 -6 °C -8.4 °C 34246 hPa NW 23.8 km/h 23.8 km/h 76 % 0 mm 0.0 W/m2 CLR
06:11 -6.2 °C -8.5 °C 34256.2 hPa WNW 28.5 km/h 28.5 km/h 77 % 0 mm 0.0 W/m2 CLR
06:16 -6.3 °C -8.6 °C 34256.2 hPa WNW 20.9 km/h 20.9 km/h 77 % 0 mm 0.0 W/m2 CLR
06:21 -6.4 °C -8.7 °C 34256.2 hPa NW 20.9 km/h 20.9 km/h 77 % 0 mm 0.0 W/m2 CLR
06:26 -6.5 °C -8.7 °C 34269.7 hPa West 11.9 km/h 11.9 km/h 78 % 0 mm 0.0 W/m2 OVC
06:31 -6.5 °C -8.7 °C 34269.7 hPa WNW 9 km/h 9 km/h 78 % 0 mm 0.0 W/m2 OVC
06:36 -6.6 °C -8.7 °C 34269.7 hPa West 15 km/h 15 km/h 78 % 0 mm 0.0 W/m2 OVC
06:41 -6.6 °C -8.7 °C 34269.7 hPa West 17.9 km/h 17.9 km/h 78 % 0 mm 5.0 W/m2 OVC
06:46 -6.6 °C -8.7 °C 34269.7 hPa West 15 km/h 15 km/h 78 % 0 mm 7.0 W/m2 BKN
06:51 -6.6 °C -8.7 °C 34269.7 hPa WNW 15.6 km/h 15.6 km/h 78 % 0 mm 11.0 W/m2 BKN
06:56 -6.6 °C -8.8 °C 34269.7 hPa WSW 11.9 km/h 11.9 km/h 78 % 0 mm 14.0 W/m2 BKN
07:01 -6.6 °C -8.8 °C 34279.9 hPa Calm     78 % 0 mm 18.0 W/m2 BKN
07:06 -6.6 °C -8.8 °C 34279.9 hPa Calm     78 % 0 mm 23.0 W/m2 BKN
07:11 -6.6 °C -8.7 °C 34279.9 hPa Calm     79 % 0 mm 26.0 W/m2 BKN
07:16 -6.7 °C -8.7 °C 34279.9 hPa Calm     80 % 0 mm 32.0 W/m2 BKN
07:21 -6.7 °C -8.8 °C 34279.9 hPa Calm     79 % 0 mm 42.0 W/m2 BKN
07:26 -6.7 °C -8.8 °C 34279.9 hPa Calm     79 % 0 mm 54.0 W/m2 SCT
07:31 -6.6 °C -8.7 °C 34279.9 hPa Calm     79 % 0 mm 62.0 W/m2 SCT
07:36 -6.6 °C -8.7 °C 34293.4 hPa Calm     79 % 0 mm 72.0 W/m2 FEW
07:41 -6.6 °C -8.7 °C 34293.4 hPa Calm     78 % 0 mm 84.0 W/m2 FEW
07:46 -6.4 °C -8.7 °C 34293.4 hPa Calm     78 % 0 mm 98.0 W/m2 FEW
07:51 -6.4 °C -8.6 °C 34293.4 hPa Calm     78 % 0 mm 111.0 W/m2 CLR
07:56 -6.3 °C -8.7 °C 34293.4 hPa Calm     77 % 0 mm 125.0 W/m2 CLR
08:01 -6.2 °C -8.6 °C 34293.4 hPa Calm     77 % 0 mm 144.0 W/m2 CLR
08:06 -6.2 °C -8.6 °C 34293.4 hPa Calm     76 % 0 mm 156.0 W/m2 CLR
08:11 -6.1 °C -8.5 °C 34303.6 hPa Calm     76 % 0 mm 178.0 W/m2 CLR
08:16 -6 °C -8.6 °C 34303.6 hPa Calm     75 % 0 mm 193.0 W/m2 CLR
08:21 -5.9 °C -8.5 °C 34293.4 hPa Calm     75 % 0 mm 209.0 W/m2 CLR
08:26 -5.9 °C -8.4 °C 34293.4 hPa NW 15 km/h 15 km/h 75 % 0 mm 225.0 W/m2 CLR
08:31 -5.8 °C -8.5 °C 34293.4 hPa NNW 15.6 km/h 15.6 km/h 74 % 0 mm 241.0 W/m2 CLR
08:36 -5.8 °C -8.4 °C 34293.4 hPa NW 5.1 km/h 5.1 km/h 75 % 0 mm 255.0 W/m2 CLR
08:41 -5.7 °C -8.4 °C 34293.4 hPa NW 9 km/h 9 km/h 74 % 0 mm 269.0 W/m2 CLR
08:46 -5.7 °C -8.4 °C 34293.4 hPa Calm     73 % 0 mm 281.0 W/m2 CLR
08:51 -5.5 °C -8.3 °C 34303.6 hPa NNW 2.6 km/h 2.6 km/h 73 % 0 mm 295.0 W/m2 CLR
08:56 -5.4 °C -8.4 °C 34303.6 hPa Calm     72 % 0 mm 311.0 W/m2 CLR
09:01 -5.3 °C -8.2 °C 34293.4 hPa Calm   0.5 km/h 72 % 0 mm 330.0 W/m2 CLR
09:06 -5.3 °C -8.3 °C 34303.6 hPa Calm     71 % 0 mm 345.0 W/m2 CLR
09:11 -5.2 °C -8.4 °C 34303.6 hPa Calm     70 % 0 mm 357.0 W/m2 CLR
09:16 -5.1 °C -8.2 °C 34303.6 hPa Calm     70 % 0 mm 373.0 W/m2 CLR
09:21 -4.9 °C -8.3 °C 34303.6 hPa Calm     69 % 0 mm 390.0 W/m2 CLR
09:26 -4.8 °C -8.3 °C 34303.6 hPa Calm     68 % 0 mm 404.0 W/m2 CLR
09:31 -4.7 °C -8.2 °C 34303.6 hPa Calm     68 % 0 mm 425.0 W/m2 CLR
09:36 -4.4 °C -8.1 °C 34303.6 hPa Calm     67 % 0 mm 438.0 W/m2 CLR
09:41 -4.3 °C -8.1 °C 34303.6 hPa ENE 3.1 km/h 3.1 km/h 66 % 0 mm 454.0 W/m2 CLR
09:46 -4.3 °C -8.2 °C 34303.6 hPa Calm     65 % 0 mm 471.0 W/m2 CLR
09:51 -4.3 °C -8.1 °C 34303.6 hPa Calm     66 % 0 mm 489.0 W/m2 CLR
09:56 -4.4 °C -8.2 °C 34303.6 hPa WNW 3.1 km/h   66 % 0 mm 508.0 W/m2 CLR
10:01 -4.3 °C -8 °C 34303.6 hPa Calm     66 % 0 mm 524.0 W/m2 CLR
10:07 -4.1 °C -7.9 °C 34303.6 hPa Calm     66 % 0 mm 536.0 W/m2 CLR
10:12 -4.1 °C -7.9 °C 34303.6 hPa ENE 9 km/h   65 % 0 mm 543.0 W/m2 CLR
10:17 -3.9 °C -8 °C 34303.6 hPa ENE 9 km/h 9 km/h 64 % 0 mm 557.0 W/m2 CLR
10:22 -3.8 °C -8.1 °C 34293.4 hPa Calm     63 % 0 mm 564.0 W/m2 CLR
10:27 -3.8 °C -8.1 °C 34303.6 hPa Calm     62 % 0 mm 599.0 W/m2 CLR
10:32 -3.8 °C -8 °C 34303.6 hPa Calm     63 % 0 mm 629.0 W/m2 CLR
10:37 -3.8 °C -8 °C 34303.6 hPa ENE 9 km/h 9 km/h 63 % 0 mm 371.0 W/m2 CLR
10:42 -3.8 °C -8.1 °C 34303.6 hPa Calm     62 % 0 mm 659.0 W/m2 CLR
10:47 -3.7 °C -8.1 °C 34303.6 hPa Calm     62 % 0 mm 664.0 W/m2 CLR
10:52 -3.6 °C -7.9 °C 34303.6 hPa Calm     62 % 0 mm 673.0 W/m2 CLR
10:57 -3.4 °C -7.9 °C 34303.6 hPa Calm     61 % 0 mm 729.0 W/m2 CLR
11:02 -3.4 °C -8 °C 34293.4 hPa East 9 km/h 9 km/h 60 % 0 mm 752.0 W/m2 CLR
11:07 -3.3 °C -7.8 °C 34293.4 hPa Calm     61 % 0 mm 798.0 W/m2 CLR
11:12 -3.3 °C -7.9 °C 34293.4 hPa Calm     60 % 0 mm 740.0 W/m2 CLR
11:17 -3.2 °C -7.9 °C 34293.4 hPa Calm     60 % 0 mm 710.0 W/m2 CLR
11:22 -3.2 °C -7.7 °C 34293.4 hPa Calm     61 % 0 mm 772.0 W/m2 CLR
11:27 -3.1 °C -7.9 °C 34293.4 hPa East 11.9 km/h 11.9 km/h 59 % 0 mm 763.0 W/m2 CLR
11:32 -3 °C -7.8 °C 34293.4 hPa Calm     59 % 0 mm 775.0 W/m2 CLR
11:37 -3.1 °C -8 °C 34293.4 hPa SSE 3.1 km/h   58 % 0 mm 768.0 W/m2 CLR
11:42 -2.9 °C -7.4 °C 34293.4 hPa Calm     61 % 0 mm 791.0 W/m2 CLR
11:47 -2.8 °C -7.8 °C 34293.4 hPa Calm     58 % 0 mm 803.0 W/m2 CLR
11:52 -2.7 °C -7.9 °C 34293.4 hPa Calm     57 % 0 mm 817.0 W/m2 CLR
11:57 -2.6 °C -7.9 °C 34293.4 hPa Calm     56 % 0 mm 816.0 W/m2 CLR
11:59 -2.6 °C -7.9 °C 34293.4 hPa Calm     56 % 0 mm 810.0 W/m2 CLR
12:04 -2.6 °C -7.8 °C 34293.4 hPa NW 3.1 km/h 3.1 km/h 57 % 0 mm 826.0 W/m2 CLR
12:09 -2.5 °C -7.5 °C 34293.4 hPa NNE 15 km/h 15 km/h 58 % 0 mm 840.0 W/m2 CLR
12:14 -2.4 °C -7.6 °C 34279.9 hPa Calm     57 % 0 mm 826.0 W/m2 CLR
12:19 -2.4 °C -7.6 °C 34279.9 hPa Calm     57 % 0 mm 831.0 W/m2 CLR
12:24 -2.3 °C -7.4 °C 34279.9 hPa Calm     57 % 0 mm 833.0 W/m2 CLR
12:29 -2.2 °C -7.7 °C 34279.9 hPa North 15 km/h 15 km/h 55 % 0 mm 838.0 W/m2 CLR
12:34 -2.2 °C -7.6 °C 34279.9 hPa Calm     56 % 0 mm 846.0 W/m2 CLR
12:36 -2.2 °C -7.6 °C 34279.9 hPa Calm     56 % 0 mm 847.0 W/m2 CLR
12:41 -2.1 °C -7.1 °C 34279.9 hPa ENE 15 km/h 15 km/h 58 % 0 mm 854.0 W/m2 CLR
12:46 -1.9 °C -7.2 °C 34279.9 hPa East 23.8 km/h 23.8 km/h 56 % 0 mm 861.0 W/m2 CLR
12:51 -1.9 °C -7.4 °C 34279.9 hPa ENE 15 km/h 15 km/h 55 % 0 mm 860.0 W/m2 CLR
12:56 -1.8 °C -7.2 °C 34269.7 hPa East 10.3 km/h 10.3 km/h 56 % 0 mm 872.0 W/m2 CLR
13:01 -1.8 °C -7 °C 34269.7 hPa East 17.9 km/h 17.9 km/h 57 % 0 mm 874.0 W/m2 CLR
13:06 -1.6 °C -7.2 °C 34269.7 hPa NNE 20.9 km/h 20.9 km/h 55 % 0 mm 877.0 W/m2 CLR
13:11 -1.7 °C -7.1 °C 34269.7 hPa NE 9 km/h   56 % 0 mm 881.0 W/m2 CLR
13:16 -1.5 °C -7.1 °C 34269.7 hPa ENE 23.8 km/h 23.8 km/h 55 % 0 mm 886.0 W/m2 CLR
13:21 -1.5 °C -7.2 °C 34269.7 hPa NNE 11.9 km/h 11.9 km/h 54 % 0 mm 889.0 W/m2 CLR
13:26 -1.6 °C -6.9 °C 34269.7 hPa NW 15 km/h 15 km/h 56 % 0 mm 889.0 W/m2 CLR
13:31 -1.4 °C -7 °C 34269.7 hPa ENE 20.9 km/h 20.9 km/h 55 % 0 mm 895.0 W/m2 CLR
13:34 -1.4 °C -7.2 °C 34256.2 hPa NNW 15 km/h 15 km/h 54 % 0 mm 898.0 W/m2 CLR
13:39 -1.4 °C -7.1 °C 34256.2 hPa Calm     54 % 0 mm 902.0 W/m2 CLR
13:44 -1.3 °C -7 °C 34256.2 hPa North 11.9 km/h 11.9 km/h 54 % 0 mm 902.0 W/m2 CLR
13:49 -1.2 °C -6.9 °C 34256.2 hPa North 3.1 km/h 3.1 km/h 54 % 0 mm 905.0 W/m2 CLR
13:54 -1.1 °C -7 °C 34246 hPa NNE 26.9 km/h 26.9 km/h 53 % 0 mm 904.0 W/m2 CLR
13:59 -1.2 °C -6.9 °C 34246 hPa NNE 20.9 km/h 20.9 km/h 54 % 0 mm 902.0 W/m2 CLR
14:04 -1 °C -6.9 °C 34235.8 hPa NNE 20.9 km/h 20.9 km/h 53 % 0 mm 907.0 W/m2 CLR
14:09 -0.9 °C -7 °C 34246 hPa North 23.8 km/h 23.8 km/h 52 % 0 mm 902.0 W/m2 CLR
14:14 -0.9 °C -6.8 °C 34235.8 hPa NNE 17.9 km/h 17.9 km/h 53 % 0 mm 898.0 W/m2 CLR
14:19 -0.8 °C -6.9 °C 34235.8 hPa NNE 20.9 km/h 20.9 km/h 52 % 0 mm 900.0 W/m2 CLR
14:24 -0.6 °C -6.7 °C 34235.8 hPa NE 23.8 km/h 23.8 km/h 52 % 0 mm 902.0 W/m2 CLR
14:29 -0.5 °C -6.8 °C 34235.8 hPa North 29.8 km/h 29.8 km/h 51 % 0 mm 909.0 W/m2 CLR
14:34 -0.5 °C -6.8 °C 34235.8 hPa ENE 35.7 km/h 35.7 km/h 51 % 0 mm 904.0 W/m2 CLR
14:39 -0.5 °C -6.8 °C 34222.3 hPa NNE 20.9 km/h 20.9 km/h 51 % 0 mm 900.0 W/m2 CLR
14:44 -0.4 °C -6.6 °C 34222.3 hPa North 18.2 km/h 18.2 km/h 52 % 0 mm 895.0 W/m2 CLR
14:49 -0.4 °C -6.6 °C 34222.3 hPa NNE 32.8 km/h 32.8 km/h 52 % 0 mm 921.0 W/m2 CLR
14:54 -0.3 °C -6.6 °C 34212.1 hPa NNE 35.7 km/h 35.7 km/h 51 % 0 mm 923.0 W/m2 CLR
14:59 -0.4 °C -6.6 °C 34212.1 hPa NE 29.8 km/h 29.8 km/h 52 % 0 mm 925.0 W/m2 CLR
15:04 -0.3 °C -6.4 °C 34212.1 hPa NNE 18.2 km/h 18.2 km/h 52 % 0 mm 907.0 W/m2 CLR
15:09 -0.3 °C -6.6 °C 34212.1 hPa North 29.8 km/h 29.8 km/h 51 % 0 mm 940.0 W/m2 CLR
15:14 -0.6 °C -6.7 °C 34212.1 hPa North 29.8 km/h 29.8 km/h 52 % 0 mm 216.0 W/m2 CLR
15:19 -0.6 °C -6.5 °C 34212.1 hPa NNE 29.8 km/h 29.8 km/h 53 % 0 mm 257.0 W/m2 CLR
15:24 -0.3 °C -6.3 °C 34198.6 hPa North 23.8 km/h 23.8 km/h 53 % 0 mm 895.0 W/m2 CLR
15:29 -0.2 °C -6.6 °C 34198.6 hPa NE 17.9 km/h 17.9 km/h 51 % 0 mm 868.0 W/m2 CLR
15:34 -0.1 °C -6.4 °C 34198.6 hPa NE 26.9 km/h 26.9 km/h 51 % 0 mm 872.0 W/m2 CLR
15:39 0.1 °C -6.3 °C 34198.6 hPa NE 17.9 km/h 17.9 km/h 51 % 0 mm 874.0 W/m2 CLR
15:44 0.1 °C -6.4 °C 34198.6 hPa ENE 20.9 km/h 20.9 km/h 50 % 0 mm 902.0 W/m2 CLR
15:49 0 °C -6.5 °C 34198.6 hPa NE 29.8 km/h 29.8 km/h 50 % 0 mm 267.0 W/m2 CLR
15:54 0 °C -6.3 °C 34198.6 hPa East 11.9 km/h 11.9 km/h 51 % 0 mm 810.0 W/m2 CLR
15:59 0.1 °C -6.3 °C 34188.4 hPa ENE 29.8 km/h 29.8 km/h 51 % 0 mm 805.0 W/m2 CLR
16:05 0.1 °C -6.3 °C 34188.4 hPa East 15.6 km/h 15.6 km/h 51 % 0 mm 728.0 W/m2 CLR
16:10 -0.1 °C -6.3 °C 34188.4 hPa ENE 6 km/h 6 km/h 51 % 0 mm 802.0 W/m2 CLR
16:15 0.1 °C -6.2 °C 34188.4 hPa East 10.3 km/h 10.3 km/h 51 % 0 mm 805.0 W/m2 CLR
16:20 0.1 °C -6.2 °C 34188.4 hPa ENE 23.8 km/h 23.8 km/h 51 % 0 mm 860.0 W/m2 CLR
16:25 0 °C -6.3 °C 34188.4 hPa ENE 23.8 km/h 23.8 km/h 51 % 0 mm 318.0 W/m2 CLR
16:30 -0.2 °C -6.2 °C 34188.4 hPa ENE 20.8 km/h 20.8 km/h 53 % 0 mm 322.0 W/m2 CLR
16:35 -0.2 °C -6.2 °C 34178.3 hPa East 25.9 km/h 25.9 km/h 53 % 0 mm 740.0 W/m2 CLR
16:40 -0.2 °C -6.2 °C 34188.4 hPa ESE 15.6 km/h 15.6 km/h 53 % 0 mm 737.0 W/m2 CLR
16:45 -0.2 °C -6.2 °C 34178.3 hPa East 26.9 km/h 26.9 km/h 53 % 0 mm 724.0 W/m2 CLR
16:50 -0.3 °C -6.2 °C 34178.3 hPa ENE 35.7 km/h 35.7 km/h 53 % 0 mm 708.0 W/m2 CLR
16:55 -0.2 °C -6.2 °C 34178.3 hPa East 23.8 km/h 23.8 km/h 53 % 0 mm 693.0 W/m2 CLR
17:00 -0.4 °C -6.2 °C 34178.3 hPa ESE 33.6 km/h 33.6 km/h 54 % 0 mm 693.0 W/m2 CLR
17:05 -0.5 °C -6.1 °C 34178.3 hPa ENE 18.2 km/h 18.2 km/h 55 % 0 mm 673.0 W/m2 CLR
17:10 -0.4 °C -6.2 °C 34178.3 hPa East 17.9 km/h 17.9 km/h 54 % 0 mm 666.0 W/m2 CLR
17:15 -0.4 °C -6 °C 34178.3 hPa East 20.9 km/h 20.9 km/h 55 % 0 mm 682.0 W/m2 CLR
17:20 -0.6 °C -6.2 °C 34178.3 hPa ENE 38.8 km/h 38.8 km/h 55 % 0 mm 334.0 W/m2 CLR
17:25 -0.7 °C -6.2 °C 34178.3 hPa ESE 23.8 km/h 23.8 km/h 56 % 0 mm 675.0 W/m2 CLR
17:30 -0.7 °C -6.3 °C 34178.3 hPa ESE 31.1 km/h 31.1 km/h 55 % 0 mm 647.0 W/m2 CLR
17:35 -0.8 °C -6.3 °C 34178.3 hPa East 29.8 km/h 29.8 km/h 56 % 0 mm 262.0 W/m2 CLR
17:40 -0.7 °C -6 °C 34164.7 hPa East 15.6 km/h 15.6 km/h 57 % 0 mm 657.0 W/m2 CLR
17:45 -0.6 °C -6 °C 34164.7 hPa NE 32.8 km/h 32.8 km/h 56 % 0 mm 606.0 W/m2 CLR
17:50 -0.6 °C -6 °C 34178.3 hPa ESE 29.8 km/h 29.8 km/h 56 % 0 mm 605.0 W/m2 CLR
17:55 -0.9 °C -6.5 °C 34178.3 hPa SE 38.8 km/h 38.8 km/h 55 % 0 mm 636.0 W/m2 CLR
18:00 -1.2 °C -6.6 °C 34178.3 hPa ESE 29.8 km/h 29.8 km/h 56 % 0 mm 251.0 W/m2 CLR
18:05 -1.1 °C -6.5 °C 34178.3 hPa ESE 17.9 km/h 17.9 km/h 56 % 0 mm 693.0 W/m2 CLR
18:10 -0.9 °C -6.7 °C 34188.4 hPa ESE 29.8 km/h 29.8 km/h 54 % 0 mm 592.0 W/m2 CLR
18:15 -1.1 °C -6.7 °C 34188.4 hPa SE 44.7 km/h 44.7 km/h 55 % 0 mm 615.0 W/m2 CLR
18:20 -1.4 °C -6.7 °C 34188.4 hPa ESE 32.8 km/h 32.8 km/h 57 % 0 mm 626.0 W/m2 CLR
18:25 -1.4 °C -6.4 °C 34188.4 hPa SE 29.8 km/h 29.8 km/h 58 % 0 mm 251.0 W/m2 CLR
18:31 -1.6 °C -6.6 °C 34188.4 hPa ESE 38.8 km/h 38.8 km/h 58 % 0 mm 548.0 W/m2 CLR
18:36 -1.7 °C -6.7 °C 34188.4 hPa SE 35.7 km/h 35.7 km/h 58 % 0 mm 526.0 W/m2 CLR
18:41 -1.8 °C -6.8 °C 34198.6 hPa SSE 29.8 km/h 29.8 km/h 58 % 0 mm 146.0 W/m2 CLR
18:46 -2 °C -6.8 °C 34222.3 hPa South 20.8 km/h 20.8 km/h 59 % 0 mm 44.0 W/m2 CLR
18:51 -2.2 °C -6.9 °C 34212.1 hPa South 47.6 km/h 47.6 km/h 60 % 0 mm 188.0 W/m2 FEW
18:56 -2.3 °C -6.9 °C 34198.6 hPa SE 35.7 km/h 35.7 km/h 61 % 0 mm 589.0 W/m2 FEW
19:01 -2.4 °C -6.8 °C 34198.6 hPa SSE 29.8 km/h 29.8 km/h 62 % 0 mm 308.0 W/m2 CLR
19:06 -2.6 °C -6.8 °C 34198.6 hPa SSE 17.9 km/h 17.9 km/h 63 % 0 mm 485.0 W/m2 CLR
19:11 -2.6 °C -7.1 °C 34198.6 hPa South 23.8 km/h 23.8 km/h 62 % 0 mm 441.0 W/m2 CLR
19:16 -2.8 °C -7.5 °C 34212.1 hPa South 32.8 km/h 32.8 km/h 60 % 0 mm 439.0 W/m2 CLR
19:21 -2.8 °C -7.2 °C 34212.1 hPa SSE 47.6 km/h 47.6 km/h 62 % 0 mm 418.0 W/m2 CLR
19:26 -2.9 °C -6.6 °C 34212.1 hPa SE 41.7 km/h 41.7 km/h 67 % 0 mm 378.0 W/m2 CLR
19:31 -3.2 °C -6.6 °C 34212.1 hPa SE 28.5 km/h 28.5 km/h 69 % 0 mm 155.0 W/m2 CLR
19:36 -3.2 °C -6.5 °C 34235.8 hPa SSE 32.8 km/h 32.8 km/h 70 % 0 mm 214.0 W/m2 CLR
19:41 -3.3 °C -6.4 °C 34235.8 hPa SSE 29.8 km/h 29.8 km/h 71 % 0 mm 327.0 W/m2 CLR
19:46 -3.3 °C -6.3 °C 34222.3 hPa ESE 26.9 km/h 26.9 km/h 72 % 0 mm 158.0 W/m2 CLR
19:51 -3.3 °C -6.2 °C 34212.1 hPa ESE 23.8 km/h 23.8 km/h 73 % 0 mm 223.0 W/m2 CLR
19:56 -3.4 °C -6.2 °C 34212.1 hPa Calm     74 % 0 mm 207.0 W/m2 CLR
20:01 -3.5 °C -6.3 °C 34212.1 hPa SSE 20.9 km/h 20.9 km/h 74 % 0 mm 123.0 W/m2 CLR
20:06 -3.5 °C -6.4 °C 34212.1 hPa South 29.8 km/h 29.8 km/h 73 % 0 mm 181.0 W/m2 CLR
20:11 -3.5 °C -6.4 °C 34212.1 hPa South 23.8 km/h 23.8 km/h 73 % 0 mm 167.0 W/m2 CLR
20:16 -3.4 °C -6.2 °C 34212.1 hPa SSE 15 km/h 15 km/h 74 % 0 mm 146.0 W/m2 CLR
20:21 -3.5 °C -6.4 °C 34212.1 hPa SSE 23.8 km/h 23.8 km/h 73 % 0 mm 123.0 W/m2 CLR
20:26 -3.6 °C -6.4 °C 34212.1 hPa South 31.1 km/h 31.1 km/h 73 % 0 mm 114.0 W/m2 CLR
20:31 -3.7 °C -6.4 °C 34212.1 hPa SSW 9 km/h 9 km/h 74 % 0 mm 90.0 W/m2 CLR
20:36 -3.6 °C -6.3 °C 34212.1 hPa Calm     75 % 0 mm 70.0 W/m2 FEW
20:41 -3.6 °C -6.4 °C 34222.3 hPa Calm     74 % 0 mm 58.0 W/m2 SCT
20:46 -3.6 °C -6.3 °C 34222.3 hPa SSW 17.9 km/h 17.9 km/h 75 % 0 mm 44.0 W/m2 SCT
20:51 -3.7 °C -6.3 °C 34235.8 hPa South 9 km/h 9 km/h 75 % 0 mm 35.0 W/m2 BKN
20:52 -3.7 °C -6.3 °C 34235.8 hPa South 15.6 km/h 15.6 km/h 75 % 0 mm 32.0 W/m2 BKN
20:57 -3.7 °C -6.3 °C 34235.8 hPa South 9 km/h   75 % 0 mm 23.0 W/m2 BKN
20:59 -3.7 °C -6.4 °C 34235.8 hPa SSE 5.1 km/h   75 % 0 mm 19.0 W/m2 BKN
21:02 -3.8 °C -6.3 °C 34235.8 hPa South 15 km/h 15 km/h 76 % 0 mm 16.0 W/m2 BKN
21:08 -3.8 °C -6.4 °C 34235.8 hPa Calm     76 % 0 mm 11.0 W/m2 BKN
21:13 -3.9 °C -6.4 °C 34235.8 hPa Calm     76 % 0 mm 9.0 W/m2 BKN
21:18 -4 °C -6.5 °C 34235.8 hPa South 11.9 km/h 11.9 km/h 76 % 0 mm 9.0 W/m2 BKN
21:23 -4 °C -6.4 °C 34235.8 hPa Calm     77 % 0 mm 7.0 W/m2 BKN
21:28 -4.1 °C -6.4 °C 34246 hPa Calm     77 % 0 mm 0.0 W/m2 OVC
21:33 -4.1 °C -6.3 °C 34235.8 hPa Calm     78 % 0 mm 0.0 W/m2 OVC
21:38 -4.1 °C -6.4 °C 34246 hPa Calm     78 % 0 mm 0.0 W/m2 OVC
21:43 -4.2 °C -6.3 °C 34246 hPa Calm     79 % 0 mm 0.0 W/m2 OVC
21:48 -4.2 °C -6.3 °C 34246 hPa Calm     79 % 0 mm 0.0 W/m2 CLR
21:53 -4.2 °C -6.4 °C 34246 hPa Calm     79 % 0 mm 0.0 W/m2 CLR
21:58 -4.3 °C -6.3 °C 34256.2 hPa Calm     80 % 0 mm 0.0 W/m2 CLR
22:03 -4.3 °C -6.3 °C 34256.2 hPa Calm     80 % 0 mm 0.0 W/m2 CLR
22:08 -4.3 °C -6.3 °C 34256.2 hPa Calm     80 % 0 mm 0.0 W/m2 CLR
22:13 -4.3 °C -6.3 °C 34256.2 hPa Calm     80 % 0 mm 0.0 W/m2 CLR
22:18 -4.4 °C -6.4 °C 34269.7 hPa Calm     80 % 0 mm 0.0 W/m2 CLR
22:23 -4.4 °C -6.4 °C 34269.7 hPa Calm     80 % 0 mm 0.0 W/m2 CLR
22:28 -4.4 °C -6.5 °C 34269.7 hPa SW 6 km/h   80 % 0 mm 0.0 W/m2 CLR
22:33 -4.4 °C -6.5 °C 34279.9 hPa West 9 km/h 9 km/h 80 % 0 mm 0.0 W/m2 CLR
22:38 -4.5 °C -6.4 °C 34279.9 hPa Calm     81 % 0 mm 0.0 W/m2 CLR
22:43 -4.6 °C -6.4 °C 34279.9 hPa Calm     81 % 0 mm 0.0 W/m2 CLR
22:48 -4.6 °C -6.5 °C 34279.9 hPa Calm     81 % 0 mm 0.0 W/m2 CLR
22:53 -4.6 °C -6.6 °C 34293.4 hPa Calm     81 % 0 mm 0.0 W/m2 CLR
22:58 -4.7 °C -7.1 °C 34293.4 hPa West 9 km/h 9 km/h 77 % 0 mm 0.0 W/m2 CLR
23:03 -4.6 °C -7.7 °C 34303.6 hPa WNW 23.8 km/h 23.8 km/h 71 % 0 mm 0.0 W/m2 CLR
23:08 -4.4 °C -7.9 °C 34303.6 hPa WNW 23.8 km/h 23.8 km/h 68 % 0 mm 0.0 W/m2 CLR
23:13 -4.4 °C -8 °C 34303.6 hPa WNW 20.9 km/h 20.9 km/h 67 % 0 mm 0.0 W/m2 CLR
23:18 -4.4 °C -8 °C 34303.6 hPa WNW 17.9 km/h 17.9 km/h 67 % 0 mm 0.0 W/m2 CLR
23:23 -4.4 °C -8.2 °C 34313.7 hPa West 9 km/h 9 km/h 66 % 0 mm 0.0 W/m2 CLR
23:28 -4.4 °C -8.2 °C 34313.7 hPa WNW 17.9 km/h 17.9 km/h 66 % 0 mm 0.0 W/m2 CLR
23:33 -4.4 °C -8.2 °C 34313.7 hPa WNW 15 km/h 15 km/h 66 % 0 mm 0.0 W/m2 CLR
23:38 -4.5 °C -8.2 °C 34313.7 hPa WNW 23.8 km/h 23.8 km/h 66 % 0 mm 0.0 W/m2 CLR
23:43 -4.6 °C -8.4 °C 34313.7 hPa NW 29.8 km/h 29.8 km/h 65 % 0 mm 0.0 W/m2 CLR
23:48 -4.6 °C -8.3 °C 34313.7 hPa WSW 9 km/h   66 % 0 mm 0.0 W/m2 CLR
23:53 -4.6 °C -8.4 °C 34313.7 hPa WSW 9 km/h 9 km/h 66 % 0 mm 0.0 W/m2 CLR
23:58 -4.7 °C -8.4 °C 34313.7 hPa West 10.3 km/h 10.3 km/h 66 % 0 mm 0.0 W/m2 CLR
Lo Temps de Massalio
Compliments of Weather Underground - 1.25 mb